sensor_id;sensor_type;location;lat;lon;timestamp;pressure;altitude;pressure_sealevel;temperature;humidity
48404;BME280;34202;52.536;6.042;2023-03-14T00:00:31;98869.83;;;9.83;98.89
48404;BME280;34202;52.536;6.042;2023-03-14T00:05:31;98868.21;;;9.85;99.11
48404;BME280;34202;52.536;6.042;2023-03-14T00:10:31;98872.86;;;9.88;99.50
48404;BME280;34202;52.536;6.042;2023-03-14T00:15:33;98865.13;;;9.92;100.00
48404;BME280;34202;52.536;6.042;2023-03-14T00:20:34;98870.81;;;9.94;100.00
48404;BME280;34202;52.536;6.042;2023-03-14T00:25:35;98863.88;;;9.93;100.00
48404;BME280;34202;52.536;6.042;2023-03-14T00:30:37;98870.38;;;9.90;100.00
48404;BME280;34202;52.536;6.042;2023-03-14T00:35:38;98868.75;;;9.84;100.00
48404;BME280;34202;52.536;6.042;2023-03-14T00:40:39;98857.27;;;9.78;100.00
48404;BME280;34202;52.536;6.042;2023-03-14T00:45:39;98851.19;;;9.69;100.00
48404;BME280;34202;52.536;6.042;2023-03-14T00:50:40;98851.33;;;9.63;100.00
48404;BME280;34202;52.536;6.042;2023-03-14T00:55:41;98860.42;;;9.60;100.00
48404;BME280;34202;52.536;6.042;2023-03-14T01:00:43;98866.36;;;9.59;100.00
48404;BME280;34202;52.536;6.042;2023-03-14T01:05:44;98852.10;;;9.59;100.00
48404;BME280;34202;52.536;6.042;2023-03-14T01:10:44;98853.17;;;9.58;100.00
48404;BME280;34202;52.536;6.042;2023-03-14T01:15:44;98854.63;;;9.55;100.00
48404;BME280;34202;52.536;6.042;2023-03-14T01:20:45;98853.88;;;9.49;100.00
48404;BME280;34202;52.536;6.042;2023-03-14T01:25:45;98848.92;;;9.45;100.00
48404;BME280;34202;52.536;6.042;2023-03-14T01:30:45;98851.73;;;9.43;100.00
48404;BME280;34202;52.536;6.042;2023-03-14T01:35:49;98859.20;;;9.44;100.00
48404;BME280;34202;52.536;6.042;2023-03-14T01:40:50;98855.55;;;9.43;100.00
48404;BME280;34202;52.536;6.042;2023-03-14T01:51:09;98847.19;;;9.44;100.00
48404;BME280;34202;52.536;6.042;2023-03-14T01:56:13;98844.41;;;9.45;100.00
48404;BME280;34202;52.536;6.042;2023-03-14T02:01:18;98845.83;;;9.44;100.00
48404;BME280;34202;52.536;6.042;2023-03-14T02:06:26;98843.45;;;9.41;100.00
48404;BME280;34202;52.536;6.042;2023-03-14T02:11:29;98840.00;;;9.40;100.00
48404;BME280;34202;52.536;6.042;2023-03-14T02:16:30;98841.06;;;9.38;100.00
48404;BME280;34202;52.536;6.042;2023-03-14T02:27:19;98846.94;;;9.31;100.00
48404;BME280;34202;52.536;6.042;2023-03-14T02:32:21;98844.31;;;9.24;100.00
48404;BME280;34202;52.536;6.042;2023-03-14T02:37:28;98838.90;;;9.17;100.00
48404;BME280;34202;52.536;6.042;2023-03-14T02:42:33;98826.88;;;9.10;100.00
48404;BME280;34202;52.536;6.042;2023-03-14T02:47:34;98824.73;;;9.05;100.00
48404;BME280;34202;52.536;6.042;2023-03-14T02:52:37;98820.15;;;8.99;100.00
48404;BME280;34202;52.536;6.042;2023-03-14T02:57:37;98806.84;;;8.96;100.00
48404;BME280;34202;52.536;6.042;2023-03-14T03:02:38;98801.73;;;8.92;100.00
48404;BME280;34202;52.536;6.042;2023-03-14T03:07:39;98802.45;;;8.90;100.00
48404;BME280;34202;52.536;6.042;2023-03-14T03:12:39;98807.70;;;8.87;100.00
48404;BME280;34202;52.536;6.042;2023-03-14T03:17:39;98799.91;;;8.86;100.00
48404;BME280;34202;52.536;6.042;2023-03-14T03:22:40;98804.43;;;8.86;100.00
48404;BME280;34202;52.536;6.042;2023-03-14T03:27:41;98804.61;;;8.86;100.00
48404;BME280;34202;52.536;6.042;2023-03-14T03:32:41;98802.73;;;8.85;100.00
48404;BME280;34202;52.536;6.042;2023-03-14T03:37:41;98797.02;;;8.83;100.00
48404;BME280;34202;52.536;6.042;2023-03-14T03:42:42;98792.71;;;8.82;100.00
48404;BME280;34202;52.536;6.042;2023-03-14T03:47:42;98784.60;;;8.81;100.00
48404;BME280;34202;52.536;6.042;2023-03-14T03:52:42;98785.30;;;8.79;100.00
48404;BME280;34202;52.536;6.042;2023-03-14T03:57:43;98790.54;;;8.78;100.00
48404;BME280;34202;52.536;6.042;2023-03-14T04:02:43;98792.30;;;8.77;100.00
48404;BME280;34202;52.536;6.042;2023-03-14T04:07:44;98795.27;;;8.76;100.00
48404;BME280;34202;52.536;6.042;2023-03-14T04:12:44;98795.09;;;8.76;100.00
48404;BME280;34202;52.536;6.042;2023-03-14T04:17:45;98798.39;;;8.76;100.00
48404;BME280;34202;52.536;6.042;2023-03-14T04:22:45;98801.16;;;8.76;100.00
48404;BME280;34202;52.536;6.042;2023-03-14T04:27:46;98799.42;;;8.76;100.00
48404;BME280;34202;52.536;6.042;2023-03-14T04:32:47;98796.63;;;8.77;100.00
48404;BME280;34202;52.536;6.042;2023-03-14T04:37:47;98794.52;;;8.78;100.00
48404;BME280;34202;52.536;6.042;2023-03-14T04:42:49;98789.48;;;8.79;100.00
48404;BME280;34202;52.536;6.042;2023-03-14T04:47:49;98784.77;;;8.81;100.00
48404;BME280;34202;52.536;6.042;2023-03-14T04:52:49;98773.11;;;8.82;100.00
48404;BME280;34202;52.536;6.042;2023-03-14T04:57:50;98768.59;;;8.84;100.00
48404;BME280;34202;52.536;6.042;2023-03-14T05:02:50;98763.05;;;8.83;100.00
48404;BME280;34202;52.536;6.042;2023-03-14T05:07:51;98765.29;;;8.83;100.00
48404;BME280;34202;52.536;6.042;2023-03-14T05:12:51;98762.88;;;8.83;100.00
48404;BME280;34202;52.536;6.042;2023-03-14T05:17:51;98758.23;;;8.80;100.00
48404;BME280;34202;52.536;6.042;2023-03-14T05:22:53;98754.81;;;8.78;100.00
48404;BME280;34202;52.536;6.042;2023-03-14T05:27:54;98750.88;;;8.75;100.00
48404;BME280;34202;52.536;6.042;2023-03-14T05:32:55;98752.13;;;8.74;100.00
48404;BME280;34202;52.536;6.042;2023-03-14T05:37:55;98749.54;;;8.72;100.00
48404;BME280;34202;52.536;6.042;2023-03-14T05:42:55;98751.66;;;8.70;100.00
48404;BME280;34202;52.536;6.042;2023-03-14T05:47:56;98756.20;;;8.68;100.00
48404;BME280;34202;52.536;6.042;2023-03-14T05:52:56;98756.94;;;8.66;100.00
48404;BME280;34202;52.536;6.042;2023-03-14T05:57:56;98760.45;;;8.64;100.00
48404;BME280;34202;52.536;6.042;2023-03-14T06:02:57;98768.10;;;8.63;100.00
48404;BME280;34202;52.536;6.042;2023-03-14T06:07:57;98769.17;;;8.62;100.00
48404;BME280;34202;52.536;6.042;2023-03-14T06:12:58;98761.05;;;8.60;100.00
48404;BME280;34202;52.536;6.042;2023-03-14T06:17:58;98750.65;;;8.60;100.00
48404;BME280;34202;52.536;6.042;2023-03-14T06:22:58;98747.54;;;8.59;100.00
48404;BME280;34202;52.536;6.042;2023-03-14T06:27:59;98751.89;;;8.58;100.00
48404;BME280;34202;52.536;6.042;2023-03-14T06:32:59;98758.31;;;8.58;100.00
48404;BME280;34202;52.536;6.042;2023-03-14T06:38:00;98759.34;;;8.58;100.00
48404;BME280;34202;52.536;6.042;2023-03-14T06:43:00;98751.04;;;8.58;100.00
48404;BME280;34202;52.536;6.042;2023-03-14T06:48:00;98768.52;;;8.59;100.00
48404;BME280;34202;52.536;6.042;2023-03-14T06:53:01;98834.41;;;8.59;100.00
48404;BME280;34202;52.536;6.042;2023-03-14T06:58:01;98868.58;;;8.46;100.00
48404;BME280;34202;52.536;6.042;2023-03-14T07:03:02;98879.63;;;8.27;100.00
48404;BME280;34202;52.536;6.042;2023-03-14T07:08:02;98895.15;;;8.08;100.00
48404;BME280;34202;52.536;6.042;2023-03-14T07:13:03;98907.83;;;7.93;100.00
48404;BME280;34202;52.536;6.042;2023-03-14T07:18:03;98919.80;;;7.79;100.00
48404;BME280;34202;52.536;6.042;2023-03-14T07:23:03;98936.90;;;7.67;100.00
48404;BME280;34202;52.536;6.042;2023-03-14T07:28:04;98954.82;;;7.59;100.00
48404;BME280;34202;52.536;6.042;2023-03-14T07:33:04;98969.63;;;7.51;100.00
48404;BME280;34202;52.536;6.042;2023-03-14T07:38:05;98983.56;;;7.43;100.00
48404;BME280;34202;52.536;6.042;2023-03-14T07:43:05;98998.86;;;7.35;100.00
48404;BME280;34202;52.536;6.042;2023-03-14T07:48:06;99030.34;;;7.19;100.00
48404;BME280;34202;52.536;6.042;2023-03-14T07:53:06;99051.65;;;6.91;100.00
48404;BME280;34202;52.536;6.042;2023-03-14T07:58:06;99082.58;;;6.65;100.00
48404;BME280;34202;52.536;6.042;2023-03-14T08:03:07;99114.91;;;6.23;100.00
48404;BME280;34202;52.536;6.042;2023-03-14T08:08:08;99131.21;;;5.85;100.00
48404;BME280;34202;52.536;6.042;2023-03-14T08:13:09;99152.46;;;5.56;100.00
48404;BME280;34202;52.536;6.042;2023-03-14T08:18:09;99187.83;;;5.37;100.00
48404;BME280;34202;52.536;6.042;2023-03-14T08:23:10;99211.77;;;5.22;100.00
48404;BME280;34202;52.536;6.042;2023-03-14T08:28:10;99228.47;;;5.12;100.00
48404;BME280;34202;52.536;6.042;2023-03-14T08:33:11;99244.16;;;5.09;100.00
48404;BME280;34202;52.536;6.042;2023-03-14T08:38:11;99258.64;;;5.07;100.00
48404;BME280;34202;52.536;6.042;2023-03-14T08:43:12;99284.52;;;5.07;100.00
48404;BME280;34202;52.536;6.042;2023-03-14T08:48:12;99307.80;;;5.09;100.00
48404;BME280;34202;52.536;6.042;2023-03-14T08:53:13;99332.80;;;5.10;100.00
48404;BME280;34202;52.536;6.042;2023-03-14T08:58:13;99350.59;;;5.14;100.00
48404;BME280;34202;52.536;6.042;2023-03-14T09:03:14;99379.09;;;5.21;100.00
48404;BME280;34202;52.536;6.042;2023-03-14T09:08:14;99402.89;;;5.22;100.00
48404;BME280;34202;52.536;6.042;2023-03-14T09:13:15;99428.27;;;5.26;100.00
48404;BME280;34202;52.536;6.042;2023-03-14T09:18:15;99452.25;;;5.30;100.00
48404;BME280;34202;52.536;6.042;2023-03-14T09:23:15;99467.98;;;5.36;100.00
48404;BME280;34202;52.536;6.042;2023-03-14T09:28:16;99486.15;;;5.43;100.00
48404;BME280;34202;52.536;6.042;2023-03-14T09:33:17;99505.36;;;5.53;100.00
48404;BME280;34202;52.536;6.042;2023-03-14T09:38:17;99514.07;;;5.67;100.00
48404;BME280;34202;52.536;6.042;2023-03-14T09:43:22;99531.40;;;5.79;100.00
48404;BME280;34202;52.536;6.042;2023-03-14T09:48:29;99543.39;;;5.93;100.00
48404;BME280;34202;52.536;6.042;2023-03-14T09:53:40;99572.13;;;6.01;100.00
48404;BME280;34202;52.536;6.042;2023-03-14T09:58:43;99580.61;;;6.07;100.00
48404;BME280;34202;52.536;6.042;2023-03-14T10:03:45;99599.80;;;6.08;100.00
48404;BME280;34202;52.536;6.042;2023-03-14T10:08:46;99622.39;;;6.02;100.00
48404;BME280;34202;52.536;6.042;2023-03-14T10:14:07;99649.41;;;5.93;100.00
48404;BME280;34202;52.536;6.042;2023-03-14T10:19:14;99691.59;;;5.76;100.00
48404;BME280;34202;52.536;6.042;2023-03-14T10:24:29;99686.28;;;5.41;100.00
48404;BME280;34202;52.536;6.042;2023-03-14T10:40:14;99727.38;;;5.62;100.00
48404;BME280;34202;52.536;6.042;2023-03-14T10:50:27;99783.74;;;5.89;94.02
48404;BME280;34202;52.536;6.042;2023-03-14T10:55:40;99805.67;;;6.06;91.35
48404;BME280;34202;52.536;6.042;2023-03-14T11:00:41;99829.48;;;6.21;89.20
48404;BME280;34202;52.536;6.042;2023-03-14T11:11:20;99871.59;;;6.37;85.53
48404;BME280;34202;52.536;6.042;2023-03-14T11:27:40;99926.97;;;6.45;84.53
48404;BME280;34202;52.536;6.042;2023-03-14T11:38:25;99963.38;;;6.78;79.12
48404;BME280;34202;52.536;6.042;2023-03-14T11:43:29;99982.15;;;6.69;77.80
48404;BME280;34202;52.536;6.042;2023-03-14T11:58:48;100009.80;;;7.07;78.22
48404;BME280;34202;52.536;6.042;2023-03-14T12:03:57;100016.03;;;7.33;79.96
48404;BME280;34202;52.536;6.042;2023-03-14T12:09:03;100036.76;;;7.51;77.47
48404;BME280;34202;52.536;6.042;2023-03-14T12:14:17;100056.52;;;7.55;75.14
48404;BME280;34202;52.536;6.042;2023-03-14T12:24:23;100084.28;;;7.63;76.06
48404;BME280;34202;52.536;6.042;2023-03-14T12:29:25;100096.33;;;7.54;74.49
48404;BME280;34202;52.536;6.042;2023-03-14T12:34:31;100111.42;;;7.58;74.44
48404;BME280;34202;52.536;6.042;2023-03-14T12:44:51;100133.64;;;7.65;70.02
48404;BME280;34202;52.536;6.042;2023-03-14T12:49:53;100140.05;;;7.65;70.79
48404;BME280;34202;52.536;6.042;2023-03-14T12:55:05;100140.48;;;7.75;73.11
48404;BME280;34202;52.536;6.042;2023-03-14T13:00:21;100155.64;;;7.88;71.72
48404;BME280;34202;52.536;6.042;2023-03-14T13:05:23;100159.10;;;7.88;69.55
48404;BME280;34202;52.536;6.042;2023-03-14T13:10:26;100185.23;;;7.86;68.86
48404;BME280;34202;52.536;6.042;2023-03-14T13:15:33;100192.70;;;7.86;68.55
48404;BME280;34202;52.536;6.042;2023-03-14T13:20:35;100208.67;;;7.91;68.68
48404;BME280;34202;52.536;6.042;2023-03-14T13:25:36;100223.42;;;7.93;68.73
48404;BME280;34202;52.536;6.042;2023-03-14T13:30:43;100240.70;;;7.88;67.20
48404;BME280;34202;52.536;6.042;2023-03-14T13:35:49;100250.52;;;7.81;66.31
48404;BME280;34202;52.536;6.042;2023-03-14T13:40:51;100261.34;;;7.71;65.99
48404;BME280;34202;52.536;6.042;2023-03-14T13:46:03;100275.07;;;7.74;67.81
48404;BME280;34202;52.536;6.042;2023-03-14T13:51:06;100294.85;;;7.79;67.96
48404;BME280;34202;52.536;6.042;2023-03-14T13:56:10;100306.09;;;7.77;67.44
48404;BME280;34202;52.536;6.042;2023-03-14T14:06:39;100327.39;;;7.59;67.84
48404;BME280;34202;52.536;6.042;2023-03-14T14:16:51;100366.85;;;7.72;68.19
48404;BME280;34202;52.536;6.042;2023-03-14T14:21:53;100384.77;;;7.63;65.85
48404;BME280;34202;52.536;6.042;2023-03-14T14:26:59;100402.52;;;7.56;66.36
48404;BME280;34202;52.536;6.042;2023-03-14T14:32:02;100409.27;;;7.55;66.61
48404;BME280;34202;52.536;6.042;2023-03-14T14:37:03;100426.23;;;7.57;66.42
48404;BME280;34202;52.536;6.042;2023-03-14T14:42:03;100435.02;;;7.52;66.03
48404;BME280;34202;52.536;6.042;2023-03-14T14:47:04;100446.41;;;7.48;66.81
48404;BME280;34202;52.536;6.042;2023-03-14T14:52:16;100460.08;;;7.47;67.45
48404;BME280;34202;52.536;6.042;2023-03-14T14:57:23;100470.73;;;7.42;67.92
48404;BME280;34202;52.536;6.042;2023-03-14T15:07:32;100488.54;;;7.28;67.33
48404;BME280;34202;52.536;6.042;2023-03-14T15:12:32;100493.48;;;7.24;66.84
48404;BME280;34202;52.536;6.042;2023-03-14T15:17:33;100507.98;;;7.19;66.84
48404;BME280;34202;52.536;6.042;2023-03-14T15:22:33;100516.17;;;7.12;65.98
48404;BME280;34202;52.536;6.042;2023-03-14T15:27:34;100525.59;;;7.05;65.50
48404;BME280;34202;52.536;6.042;2023-03-14T15:32:34;100543.83;;;6.99;65.92
48404;BME280;34202;52.536;6.042;2023-03-14T15:37:35;100547.55;;;6.94;66.08
48404;BME280;34202;52.536;6.042;2023-03-14T15:42:35;100553.33;;;6.88;65.49
48404;BME280;34202;52.536;6.042;2023-03-14T15:47:35;100571.82;;;6.77;64.98
48404;BME280;34202;52.536;6.042;2023-03-14T15:52:36;100573.38;;;6.67;64.48
48404;BME280;34202;52.536;6.042;2023-03-14T15:57:37;100590.19;;;6.61;65.21
48404;BME280;34202;52.536;6.042;2023-03-14T16:02:37;100596.15;;;6.55;65.67
48404;BME280;34202;52.536;6.042;2023-03-14T16:07:41;100602.04;;;6.48;65.99
48404;BME280;34202;52.536;6.042;2023-03-14T16:12:42;100610.24;;;6.43;67.22
48404;BME280;34202;52.536;6.042;2023-03-14T16:17:42;100615.23;;;6.41;68.32
48404;BME280;34202;52.536;6.042;2023-03-14T16:22:43;100631.69;;;6.35;69.44
48404;BME280;34202;52.536;6.042;2023-03-14T16:27:43;100647.26;;;6.19;70.24
48404;BME280;34202;52.536;6.042;2023-03-14T16:32:45;100661.21;;;6.08;71.20
48404;BME280;34202;52.536;6.042;2023-03-14T16:37:47;100667.27;;;6.02;71.47
48404;BME280;34202;52.536;6.042;2023-03-14T16:42:47;100678.73;;;5.97;72.13
48404;BME280;34202;52.536;6.042;2023-03-14T16:47:47;100687.45;;;5.93;72.15
48404;BME280;34202;52.536;6.042;2023-03-14T16:52:48;100692.64;;;5.87;71.51
48404;BME280;34202;52.536;6.042;2023-03-14T16:57:48;100704.92;;;5.80;71.58
48404;BME280;34202;52.536;6.042;2023-03-14T17:02:49;100710.29;;;5.74;71.25
48404;BME280;34202;52.536;6.042;2023-03-14T17:07:49;100719.29;;;5.68;71.21
48404;BME280;34202;52.536;6.042;2023-03-14T17:12:50;100724.50;;;5.62;71.30
48404;BME280;34202;52.536;6.042;2023-03-14T17:17:50;100734.00;;;5.54;71.62
48404;BME280;34202;52.536;6.042;2023-03-14T17:22:50;100736.40;;;5.48;71.84
48404;BME280;34202;52.536;6.042;2023-03-14T17:27:51;100745.03;;;5.41;72.17
48404;BME280;34202;52.536;6.042;2023-03-14T17:32:51;100753.73;;;5.37;72.43
48404;BME280;34202;52.536;6.042;2023-03-14T17:37:51;100766.02;;;5.32;72.77
48404;BME280;34202;52.536;6.042;2023-03-14T17:42:52;100771.54;;;5.25;72.65
48404;BME280;34202;52.536;6.042;2023-03-14T17:47:52;100783.90;;;5.17;72.40
48404;BME280;34202;52.536;6.042;2023-03-14T17:52:53;100791.06;;;5.07;72.52
48404;BME280;34202;52.536;6.042;2023-03-14T17:57:53;100807.02;;;4.98;72.88
48404;BME280;34202;52.536;6.042;2023-03-14T18:02:53;100820.30;;;4.93;73.24
48404;BME280;34202;52.536;6.042;2023-03-14T18:07:54;100839.62;;;4.87;72.78
48404;BME280;34202;52.536;6.042;2023-03-14T18:12:54;100840.64;;;4.75;73.84
48404;BME280;34202;52.536;6.042;2023-03-14T18:17:55;100858.80;;;4.65;74.85
48404;BME280;34202;52.536;6.042;2023-03-14T18:22:55;100867.77;;;4.55;75.52
48404;BME280;34202;52.536;6.042;2023-03-14T18:27:55;100879.00;;;4.45;75.89
48404;BME280;34202;52.536;6.042;2023-03-14T18:32:56;100884.59;;;4.36;76.60
48404;BME280;34202;52.536;6.042;2023-03-14T18:37:56;100888.30;;;4.29;76.91
48404;BME280;34202;52.536;6.042;2023-03-14T18:42:56;100887.80;;;4.19;77.16
48404;BME280;34202;52.536;6.042;2023-03-14T18:47:57;100889.43;;;4.11;77.52
48404;BME280;34202;52.536;6.042;2023-03-14T18:52:57;100895.56;;;4.04;77.23
48404;BME280;34202;52.536;6.042;2023-03-14T18:57:58;100891.88;;;3.97;77.31
48404;BME280;34202;52.536;6.042;2023-03-14T19:02:58;100893.77;;;3.91;77.03
48404;BME280;34202;52.536;6.042;2023-03-14T19:07:58;100897.86;;;3.85;76.67
48404;BME280;34202;52.536;6.042;2023-03-14T19:12:59;100902.66;;;3.80;76.91
48404;BME280;34202;52.536;6.042;2023-03-14T19:17:59;100901.17;;;3.77;76.93
48404;BME280;34202;52.536;6.042;2023-03-14T19:23:00;100890.37;;;3.73;77.65
48404;BME280;34202;52.536;6.042;2023-03-14T19:28:00;100894.40;;;3.70;78.13
48404;BME280;34202;52.536;6.042;2023-03-14T19:33:00;100913.52;;;3.66;78.16
48404;BME280;34202;52.536;6.042;2023-03-14T19:38:01;100928.34;;;3.61;78.75
48404;BME280;34202;52.536;6.042;2023-03-14T19:43:02;100935.62;;;3.58;79.03
48404;BME280;34202;52.536;6.042;2023-03-14T19:48:04;100951.36;;;3.56;79.50
48404;BME280;34202;52.536;6.042;2023-03-14T19:53:05;100954.73;;;3.54;79.53
48404;BME280;34202;52.536;6.042;2023-03-14T19:58:08;100959.77;;;3.50;79.55
48404;BME280;34202;52.536;6.042;2023-03-14T20:03:09;100976.50;;;3.46;79.51
48404;BME280;34202;52.536;6.042;2023-03-14T20:08:10;100981.81;;;3.41;79.76
48404;BME280;34202;52.536;6.042;2023-03-14T20:13:10;100976.74;;;3.35;80.59
48404;BME280;34202;52.536;6.042;2023-03-14T20:18:10;100977.43;;;3.30;81.18
48404;BME280;34202;52.536;6.042;2023-03-14T20:23:11;100979.84;;;3.26;81.55
48404;BME280;34202;52.536;6.042;2023-03-14T20:28:13;100986.36;;;3.21;82.19
48404;BME280;34202;52.536;6.042;2023-03-14T20:33:14;100989.66;;;3.17;82.44
48404;BME280;34202;52.536;6.042;2023-03-14T20:38:17;100988.28;;;3.13;82.77
48404;BME280;34202;52.536;6.042;2023-03-14T20:43:18;100989.23;;;3.06;83.16
48404;BME280;34202;52.536;6.042;2023-03-14T20:48:18;100991.27;;;3.01;83.54
48404;BME280;34202;52.536;6.042;2023-03-14T20:53:19;100997.00;;;2.94;83.62
48404;BME280;34202;52.536;6.042;2023-03-14T20:58:20;100993.74;;;2.86;83.84
48404;BME280;34202;52.536;6.042;2023-03-14T21:03:21;100992.17;;;2.77;84.43
48404;BME280;34202;52.536;6.042;2023-03-14T21:08:23;100993.00;;;2.72;85.00
48404;BME280;34202;52.536;6.042;2023-03-14T21:13:24;100993.05;;;2.69;85.51
48404;BME280;34202;52.536;6.042;2023-03-14T21:18:24;101003.71;;;2.68;86.48
48404;BME280;34202;52.536;6.042;2023-03-14T21:23:25;101006.63;;;2.69;86.74
48404;BME280;34202;52.536;6.042;2023-03-14T21:28:26;101010.63;;;2.70;87.25
48404;BME280;34202;52.536;6.042;2023-03-14T21:33:27;101007.88;;;2.70;87.63
48404;BME280;34202;52.536;6.042;2023-03-14T21:38:28;101005.86;;;2.71;87.62
48404;BME280;34202;52.536;6.042;2023-03-14T21:43:28;101007.59;;;2.71;88.37
48404;BME280;34202;52.536;6.042;2023-03-14T21:48:29;101005.39;;;2.72;88.84
48404;BME280;34202;52.536;6.042;2023-03-14T21:53:33;100999.58;;;2.73;89.09
48404;BME280;34202;52.536;6.042;2023-03-14T21:58:34;101007.03;;;2.75;89.40
48404;BME280;34202;52.536;6.042;2023-03-14T22:03:34;101022.58;;;2.76;89.70
48404;BME280;34202;52.536;6.042;2023-03-14T22:08:35;101037.09;;;2.78;89.77
48404;BME280;34202;52.536;6.042;2023-03-14T22:13:36;101070.73;;;2.81;90.33
48404;BME280;34202;52.536;6.042;2023-03-14T22:18:37;101080.52;;;2.81;91.68
48404;BME280;34202;52.536;6.042;2023-03-14T22:23:37;101065.62;;;2.74;91.93
48404;BME280;34202;52.536;6.042;2023-03-14T22:28:38;101062.29;;;2.68;92.48
48404;BME280;34202;52.536;6.042;2023-03-14T22:33:38;101067.88;;;2.66;93.17
48404;BME280;34202;52.536;6.042;2023-03-14T22:38:38;101073.61;;;2.64;93.54
48404;BME280;34202;52.536;6.042;2023-03-14T22:43:39;101072.48;;;2.61;93.37
48404;BME280;34202;52.536;6.042;2023-03-14T22:48:39;101081.84;;;2.59;94.13
48404;BME280;34202;52.536;6.042;2023-03-14T22:53:40;101083.13;;;2.57;94.57
48404;BME280;34202;52.536;6.042;2023-03-14T22:58:40;101081.45;;;2.54;94.94
48404;BME280;34202;52.536;6.042;2023-03-14T23:03:41;101079.23;;;2.50;94.92
48404;BME280;34202;52.536;6.042;2023-03-14T23:08:41;101092.34;;;2.48;95.63
48404;BME280;34202;52.536;6.042;2023-03-14T23:13:42;101093.96;;;2.45;95.88
48404;BME280;34202;52.536;6.042;2023-03-14T23:18:42;101093.41;;;2.45;96.35
48404;BME280;34202;52.536;6.042;2023-03-14T23:23:44;101102.89;;;2.45;96.97
48404;BME280;34202;52.536;6.042;2023-03-14T23:28:48;101095.79;;;2.48;97.49
48404;BME280;34202;52.536;6.042;2023-03-14T23:33:49;101090.05;;;2.50;98.19
48404;BME280;34202;52.536;6.042;2023-03-14T23:38:49;101098.73;;;2.53;98.32
48404;BME280;34202;52.536;6.042;2023-03-14T23:43:50;101103.73;;;2.53;98.59
48404;BME280;34202;52.536;6.042;2023-03-14T23:48:50;101107.61;;;2.51;98.60
48404;BME280;34202;52.536;6.042;2023-03-14T23:53:51;101111.69;;;2.50;98.59
48404;BME280;34202;52.536;6.042;2023-03-14T23:58:52;101115.31;;;2.50;99.23
